createdAt,value
2023-10-31T00:01:51.981Z,2.70
2023-10-31T00:04:19.183Z,3.10
2023-10-31T00:06:46.128Z,2.70
2023-10-31T00:09:13.411Z,3.50
2023-10-31T00:11:42.838Z,2.70
2023-10-31T00:14:28.997Z,3.10
2023-10-31T00:16:56.923Z,3.20
2023-10-31T00:19:23.927Z,3.30
2023-10-31T00:21:50.938Z,3.10
2023-10-31T00:24:17.873Z,3.50
2023-10-31T00:26:44.809Z,3.30
2023-10-31T00:29:11.746Z,4.10
2023-10-31T00:31:42.496Z,3.70
2023-10-31T00:36:37.212Z,3.90
2023-10-31T00:39:04.588Z,4.00
2023-10-31T00:41:32.099Z,3.70
2023-10-31T00:43:59.317Z,4.00
2023-10-31T00:46:26.465Z,3.50
2023-10-31T00:48:53.465Z,4.30
2023-10-31T00:51:20.535Z,4.80
2023-10-31T00:53:47.498Z,4.10
2023-10-31T00:56:14.500Z,3.50
2023-10-31T00:58:41.585Z,4.00
2023-10-31T01:01:08.585Z,3.70
2023-10-31T01:03:35.658Z,3.10
2023-10-31T01:06:02.702Z,3.50
2023-10-31T01:08:31.083Z,3.00
2023-10-31T01:10:58.233Z,3.20
2023-10-31T01:13:25.301Z,3.00
2023-10-31T01:15:52.394Z,3.80
2023-10-31T01:18:19.485Z,3.30
2023-10-31T01:20:47.858Z,3.10
2023-10-31T01:23:14.849Z,3.00
2023-10-31T01:25:41.898Z,2.80
2023-10-31T01:28:08.905Z,2.80
2023-10-31T01:30:35.857Z,2.50
2023-10-31T01:33:02.921Z,2.90
2023-10-31T01:35:29.940Z,2.90
2023-10-31T01:37:57.008Z,2.80
2023-10-31T01:40:24.065Z,2.40
2023-10-31T01:42:51.046Z,2.50
2023-10-31T01:45:18.113Z,2.90
2023-10-31T01:47:49.822Z,2.70
2023-10-31T01:50:19.229Z,2.50
2023-10-31T01:52:47.309Z,2.60
2023-10-31T01:55:14.977Z,2.60
2023-10-31T01:57:42.418Z,2.70
2023-10-31T02:00:09.926Z,2.50
2023-10-31T02:02:43.773Z,2.80
2023-10-31T02:05:11.604Z,3.10
2023-10-31T02:07:38.856Z,2.80
2023-10-31T02:10:06.345Z,2.70
2023-10-31T02:12:37.663Z,2.90
2023-10-31T02:15:05.289Z,2.80
2023-10-31T02:17:32.360Z,3.00
2023-10-31T02:19:59.522Z,2.70
2023-10-31T02:22:26.605Z,2.40
2023-10-31T02:24:53.590Z,2.80
2023-10-31T02:27:20.742Z,2.60
2023-10-31T02:29:47.795Z,2.90
2023-10-31T02:32:14.971Z,2.30
2023-10-31T02:34:42.092Z,2.20
2023-10-31T02:37:09.118Z,2.00
2023-10-31T02:39:37.505Z,1.80
2023-10-31T02:42:04.923Z,2.20
2023-10-31T02:44:31.955Z,2.30
2023-10-31T02:46:59.086Z,1.90
2023-10-31T02:49:26.131Z,1.70
2023-10-31T02:51:53.098Z,1.70
2023-10-31T02:54:20.163Z,1.80
2023-10-31T02:56:47.198Z,1.90
2023-10-31T02:59:14.388Z,1.60
2023-10-31T03:01:41.567Z,1.90
2023-10-31T03:04:08.693Z,2.20
2023-10-31T03:06:35.851Z,2.20
2023-10-31T03:09:02.845Z,1.90
2023-10-31T03:11:29.914Z,1.70
2023-10-31T03:13:58.015Z,1.90
2023-10-31T03:16:25.546Z,1.70
2023-10-31T03:18:52.769Z,1.80
2023-10-31T03:21:20.157Z,1.80
2023-10-31T03:23:51.775Z,1.50
2023-10-31T03:26:18.793Z,1.70
2023-10-31T03:28:46.549Z,1.50
2023-10-31T03:31:14.230Z,1.60
2023-10-31T03:33:42.903Z,1.40
2023-10-31T03:36:10.517Z,1.50
2023-10-31T03:38:37.833Z,1.70
2023-10-31T03:41:05.254Z,1.30
2023-10-31T03:43:32.592Z,1.60
2023-10-31T03:46:00.017Z,1.20
2023-10-31T03:48:27.694Z,1.50
2023-10-31T03:50:54.872Z,1.40
2023-10-31T03:53:21.940Z,1.10
2023-10-31T03:55:49.391Z,1.70
2023-10-31T03:58:16.489Z,1.40
2023-10-31T04:00:43.492Z,1.60
2023-10-31T04:03:10.760Z,1.10
2023-10-31T04:05:38.753Z,1.70
2023-10-31T04:08:05.849Z,1.40
2023-10-31T04:10:32.963Z,1.60
2023-10-31T04:12:59.975Z,1.50
2023-10-31T04:15:26.914Z,1.80
2023-10-31T04:17:54.017Z,1.70
2023-10-31T04:20:21.267Z,1.80
2023-10-31T04:22:48.274Z,1.80
2023-10-31T04:25:16.024Z,1.70
2023-10-31T04:27:43.185Z,1.40
2023-10-31T04:30:13.536Z,1.30
2023-10-31T04:32:42.021Z,1.20
2023-10-31T04:35:09.477Z,1.60
2023-10-31T04:37:36.506Z,1.40
2023-10-31T04:40:03.704Z,2.10
2023-10-31T04:42:30.661Z,3.10
2023-10-31T04:44:57.607Z,3.80
2023-10-31T04:47:24.766Z,2.80
2023-10-31T04:49:51.948Z,2.10
2023-10-31T04:52:21.033Z,1.90
2023-10-31T04:54:48.042Z,1.80
2023-10-31T04:57:15.145Z,1.80
2023-10-31T04:59:42.107Z,1.50
2023-10-31T05:02:09.144Z,1.50
2023-10-31T05:04:40.621Z,1.60
2023-10-31T05:07:07.714Z,1.80
2023-10-31T05:09:34.757Z,1.70
2023-10-31T05:12:01.724Z,1.80
2023-10-31T05:14:28.678Z,1.90
2023-10-31T05:16:55.789Z,1.60
2023-10-31T05:19:22.951Z,1.70
2023-10-31T05:21:49.918Z,1.60
2023-10-31T05:24:16.862Z,1.60
2023-10-31T05:26:44.323Z,1.60
2023-10-31T05:29:12.649Z,2.10
2023-10-31T05:31:39.843Z,1.60
2023-10-31T05:34:06.989Z,1.60
2023-10-31T05:36:34.226Z,1.60
2023-10-31T05:39:01.249Z,1.30
2023-10-31T05:41:28.247Z,1.80
2023-10-31T05:43:55.889Z,1.20
2023-10-31T05:46:23.102Z,1.60
2023-10-31T05:48:50.247Z,2.10
2023-10-31T05:51:19.310Z,1.50
2023-10-31T05:53:49.017Z,1.60
2023-10-31T05:56:17.632Z,1.80
2023-10-31T05:58:45.045Z,1.70
2023-10-31T06:01:12.405Z,3.00
2023-10-31T06:03:43.513Z,3.60
2023-10-31T06:06:11.060Z,4.60
2023-10-31T06:08:38.060Z,2.20
2023-10-31T06:11:05.585Z,1.60
2023-10-31T06:13:32.948Z,1.70
2023-10-31T06:16:02.227Z,1.60
2023-10-31T06:18:29.820Z,1.30
2023-10-31T06:20:57.356Z,1.50
2023-10-31T06:23:24.582Z,2.30
2023-10-31T06:25:52.019Z,2.60
2023-10-31T06:28:19.258Z,2.00
2023-10-31T06:30:46.421Z,1.50
2023-10-31T06:33:13.774Z,1.70
2023-10-31T06:35:40.922Z,1.60
2023-10-31T06:38:08.010Z,2.10
2023-10-31T06:40:35.017Z,1.60
2023-10-31T06:43:03.282Z,1.40
2023-10-31T06:45:30.268Z,1.80
2023-10-31T06:47:57.846Z,1.60
2023-10-31T06:50:25.709Z,1.90
2023-10-31T06:52:52.913Z,2.10
2023-10-31T06:55:19.978Z,1.90
2023-10-31T06:57:46.963Z,1.60
2023-10-31T07:00:14.377Z,1.50
2023-10-31T07:02:41.553Z,1.70
2023-10-31T07:05:08.925Z,1.40
2023-10-31T07:07:36.103Z,1.60
2023-10-31T07:10:03.155Z,1.40
2023-10-31T07:12:30.229Z,1.40
2023-10-31T07:14:59.742Z,1.60
2023-10-31T07:17:27.792Z,1.60
2023-10-31T07:19:54.866Z,1.80
2023-10-31T07:22:23.538Z,1.70
2023-10-31T07:24:50.531Z,2.20
2023-10-31T07:27:17.500Z,1.60
2023-10-31T07:29:44.455Z,1.80
2023-10-31T07:32:12.085Z,1.70
2023-10-31T07:34:43.473Z,2.10
2023-10-31T07:37:10.700Z,2.60
2023-10-31T07:39:37.899Z,2.00
2023-10-31T07:42:05.214Z,2.10
2023-10-31T07:44:32.316Z,2.30
2023-10-31T07:46:59.284Z,2.70
2023-10-31T07:49:26.292Z,2.00
2023-10-31T07:51:53.528Z,2.00
2023-10-31T07:54:20.648Z,1.90
2023-10-31T07:56:47.709Z,1.70
2023-10-31T07:59:14.826Z,1.80
2023-10-31T08:01:41.826Z,2.00
2023-10-31T08:04:08.986Z,2.20
2023-10-31T08:06:35.973Z,3.00
2023-10-31T08:09:03.874Z,2.20
2023-10-31T08:11:31.767Z,2.40
2023-10-31T08:13:58.828Z,2.00
2023-10-31T08:16:26.185Z,2.20
2023-10-31T08:18:53.945Z,3.00
2023-10-31T08:21:20.972Z,2.10
2023-10-31T08:23:47.920Z,2.40
2023-10-31T08:26:15.073Z,2.00
2023-10-31T08:28:42.304Z,1.80
2023-10-31T08:31:09.460Z,1.80
2023-10-31T08:33:36.558Z,2.00
2023-10-31T08:36:03.719Z,2.50
2023-10-31T08:38:32.407Z,2.10
2023-10-31T08:41:00.836Z,1.80
2023-10-31T08:43:28.473Z,3.00
2023-10-31T08:45:55.480Z,2.10
2023-10-31T08:48:22.582Z,1.60
2023-10-31T08:50:49.666Z,2.30
2023-10-31T08:53:16.936Z,2.50
2023-10-31T08:55:45.556Z,2.20
2023-10-31T08:58:14.332Z,2.10
2023-10-31T09:00:42.701Z,2.40
2023-10-31T09:03:10.583Z,2.30
2023-10-31T09:05:37.791Z,2.70
2023-10-31T09:08:05.076Z,2.90
2023-10-31T09:10:33.565Z,3.00
2023-10-31T09:13:00.568Z,2.90
2023-10-31T09:15:27.679Z,2.30
2023-10-31T09:17:55.276Z,2.60
2023-10-31T09:20:22.321Z,2.90
2023-10-31T09:22:49.317Z,2.40
2023-10-31T09:25:16.378Z,2.50
2023-10-31T09:27:43.417Z,2.50
2023-10-31T09:30:10.715Z,2.90
2023-10-31T09:32:37.807Z,2.40
2023-10-31T09:35:05.548Z,2.30
2023-10-31T09:37:32.864Z,2.30
2023-10-31T09:39:59.873Z,2.00
2023-10-31T09:42:27.181Z,2.00
2023-10-31T09:44:54.396Z,2.30
2023-10-31T09:47:21.829Z,2.50
2023-10-31T09:49:49.033Z,2.60
2023-10-31T09:52:16.188Z,2.30
2023-10-31T09:54:46.054Z,2.10
2023-10-31T09:57:15.590Z,1.90
2023-10-31T09:59:42.643Z,2.00
2023-10-31T10:02:09.883Z,1.60
2023-10-31T10:04:38.932Z,2.40
2023-10-31T10:07:06.316Z,1.90
2023-10-31T10:09:33.737Z,1.40
2023-10-31T10:12:02.108Z,2.30
2023-10-31T10:14:29.979Z,1.70
2023-10-31T10:16:57.155Z,1.90
2023-10-31T10:19:24.772Z,1.60
2023-10-31T10:21:54.189Z,2.10
2023-10-31T10:24:22.954Z,1.80
2023-10-31T10:26:50.855Z,1.60
2023-10-31T10:29:18.243Z,1.70
2023-10-31T10:31:46.362Z,1.70
2023-10-31T10:34:17.979Z,1.70
2023-10-31T10:36:51.422Z,2.30
2023-10-31T10:39:23.511Z,1.50
2023-10-31T10:41:59.789Z,1.70
2023-10-31T10:44:34.193Z,1.80
2023-10-31T10:47:07.694Z,1.90
2023-10-31T10:49:38.937Z,1.80
2023-10-31T10:52:26.983Z,1.90
2023-10-31T10:55:00.212Z,2.20
2023-10-31T10:57:47.501Z,1.50
2023-10-31T11:00:16.316Z,2.00
2023-10-31T11:02:44.679Z,1.80
2023-10-31T11:05:12.152Z,1.50
2023-10-31T11:07:40.245Z,1.80
2023-10-31T11:10:07.850Z,1.70
2023-10-31T11:12:35.091Z,1.60
2023-10-31T11:15:04.562Z,1.20
2023-10-31T11:17:38.146Z,1.60
2023-10-31T11:20:06.745Z,1.70
2023-10-31T11:22:41.216Z,1.30
2023-10-31T11:25:16.502Z,1.60
2023-10-31T11:27:51.731Z,1.70
2023-10-31T11:30:23.796Z,2.30
2023-10-31T11:32:53.429Z,2.10
2023-10-31T11:35:20.711Z,1.80
2023-10-31T11:38:04.229Z,1.80
2023-10-31T11:40:31.949Z,2.00
2023-10-31T11:43:03.877Z,1.80
2023-10-31T11:45:36.032Z,1.60
2023-10-31T11:48:03.209Z,1.90
2023-10-31T11:50:30.267Z,2.40
2023-10-31T11:53:14.588Z,2.30
2023-10-31T11:55:47.854Z,3.70
2023-10-31T11:58:23.288Z,2.00
2023-10-31T12:01:01.836Z,2.20
2023-10-31T12:03:28.914Z,3.30
2023-10-31T12:06:01.340Z,2.50
2023-10-31T12:08:33.292Z,2.50
2023-10-31T12:11:21.216Z,1.70
2023-10-31T12:14:04.856Z,2.20
2023-10-31T12:16:33.807Z,2.60
2023-10-31T12:19:03.479Z,2.60
2023-10-31T12:21:44.581Z,1.90
2023-10-31T12:24:13.405Z,1.70
2023-10-31T12:26:41.546Z,2.40
2023-10-31T12:29:11.886Z,2.30
2023-10-31T12:31:59.228Z,2.20
2023-10-31T12:34:26.771Z,2.10
2023-10-31T12:36:55.056Z,1.40
2023-10-31T12:39:24.177Z,1.70
2023-10-31T12:41:51.757Z,1.90
2023-10-31T12:44:26.048Z,1.50
2023-10-31T12:46:53.566Z,1.60
2023-10-31T12:49:21.718Z,2.00
2023-10-31T12:52:02.026Z,2.10
2023-10-31T12:54:33.890Z,2.70
2023-10-31T12:57:11.559Z,2.00
2023-10-31T12:59:40.163Z,1.50
2023-10-31T13:02:08.206Z,1.90
2023-10-31T13:04:35.828Z,2.00
2023-10-31T13:07:09.700Z,1.70
2023-10-31T13:09:39.929Z,1.90
2023-10-31T13:12:09.025Z,2.30
2023-10-31T13:14:38.073Z,2.00
2023-10-31T13:17:05.545Z,2.50
2023-10-31T13:19:32.701Z,3.00
2023-10-31T13:21:59.848Z,3.60
2023-10-31T13:24:26.958Z,3.40
2023-10-31T13:26:54.088Z,2.80
2023-10-31T13:29:21.750Z,2.90
2023-10-31T13:31:48.988Z,2.50
2023-10-31T13:34:16.118Z,2.50
2023-10-31T13:36:43.889Z,2.60
2023-10-31T13:39:11.320Z,3.60
2023-10-31T13:41:38.245Z,3.00
2023-10-31T13:44:05.563Z,3.60
2023-10-31T13:46:32.541Z,3.40
2023-10-31T13:48:59.786Z,4.00
2023-10-31T13:51:26.817Z,4.00
2023-10-31T13:53:53.770Z,3.60
2023-10-31T13:56:20.773Z,4.20
2023-10-31T13:58:49.329Z,2.70
2023-10-31T14:01:16.492Z,3.10
2023-10-31T14:03:45.132Z,3.30
2023-10-31T14:06:13.744Z,3.60
2023-10-31T14:08:41.048Z,3.70
2023-10-31T14:11:09.112Z,3.50
2023-10-31T14:13:40.459Z,3.10
2023-10-31T14:16:08.808Z,3.10
2023-10-31T14:18:35.870Z,2.70
2023-10-31T14:21:02.908Z,3.50
2023-10-31T14:23:33.173Z,3.20
2023-10-31T14:26:03.718Z,3.30
2023-10-31T14:28:30.773Z,3.20
2023-10-31T14:30:58.049Z,2.70
2023-10-31T14:33:25.089Z,2.80
2023-10-31T14:35:52.045Z,2.90
2023-10-31T14:38:19.037Z,3.50
2023-10-31T14:40:46.243Z,3.40
2023-10-31T14:43:19.320Z,3.90
2023-10-31T14:45:47.085Z,4.40
2023-10-31T14:48:14.136Z,4.30
2023-10-31T14:50:41.486Z,5.20
2023-10-31T14:53:10.628Z,5.60
2023-10-31T14:55:37.734Z,6.10
2023-10-31T14:58:04.897Z,6.20
2023-10-31T15:00:32.064Z,6.40
2023-10-31T15:02:59.124Z,7.60
2023-10-31T15:05:26.198Z,8.70
2023-10-31T15:07:56.140Z,6.30
2023-10-31T15:10:24.284Z,6.00
2023-10-31T15:12:52.799Z,6.30
2023-10-31T15:15:20.116Z,5.50
2023-10-31T15:17:49.161Z,4.00
2023-10-31T15:20:16.354Z,4.50
2023-10-31T15:22:43.396Z,4.60
2023-10-31T15:25:11.140Z,4.50
2023-10-31T15:27:38.590Z,3.80
2023-10-31T15:30:12.224Z,3.10
2023-10-31T15:32:39.670Z,3.30
2023-10-31T15:35:07.928Z,4.20
2023-10-31T15:37:35.153Z,3.50
2023-10-31T15:40:02.597Z,4.20
2023-10-31T15:42:29.747Z,3.60
2023-10-31T15:44:57.576Z,3.80
2023-10-31T15:47:24.890Z,3.90
2023-10-31T15:49:52.050Z,4.60
2023-10-31T15:52:19.093Z,4.20
2023-10-31T15:54:46.096Z,4.70
2023-10-31T15:57:13.098Z,4.40
2023-10-31T15:59:40.386Z,4.90
2023-10-31T16:02:07.558Z,5.60
2023-10-31T16:04:34.558Z,5.90
2023-10-31T16:07:01.859Z,6.40
2023-10-31T16:09:28.798Z,7.80
2023-10-31T16:11:55.768Z,8.20
2023-10-31T16:14:24.202Z,8.00
2023-10-31T16:16:51.247Z,8.10
2023-10-31T16:19:18.153Z,9.30
2023-10-31T16:21:45.093Z,9.50
2023-10-31T16:24:12.206Z,9.30
2023-10-31T16:26:39.179Z,10.10
2023-10-31T16:29:07.132Z,9.60
2023-10-31T16:31:34.164Z,10.10
2023-10-31T16:34:01.237Z,10.60
2023-10-31T16:36:28.344Z,10.00
2023-10-31T16:38:55.548Z,10.70
2023-10-31T16:41:22.578Z,10.70
2023-10-31T16:43:49.582Z,8.80
2023-10-31T16:46:16.649Z,10.00
2023-10-31T16:48:46.808Z,10.80
2023-10-31T16:51:21.015Z,11.70
2023-10-31T16:53:49.133Z,11.40
2023-10-31T16:56:17.187Z,12.90
2023-10-31T16:58:46.969Z,14.10
2023-10-31T17:01:15.136Z,13.70
2023-10-31T17:03:42.317Z,14.70
2023-10-31T17:06:12.180Z,14.10
2023-10-31T17:08:41.450Z,15.10
2023-10-31T17:11:08.993Z,14.70
2023-10-31T17:13:36.249Z,14.00
2023-10-31T17:16:04.336Z,14.40
2023-10-31T17:18:32.147Z,15.80
2023-10-31T17:20:59.779Z,15.60
2023-10-31T17:23:27.117Z,12.30
2023-10-31T17:25:55.063Z,12.10
2023-10-31T17:28:22.126Z,11.60
2023-10-31T17:30:49.293Z,11.20
2023-10-31T17:33:16.446Z,12.20
2023-10-31T17:35:43.733Z,11.70
2023-10-31T17:38:10.980Z,11.60
2023-10-31T17:40:37.986Z,11.60
2023-10-31T17:43:04.935Z,11.10
2023-10-31T17:45:32.305Z,11.60
2023-10-31T17:48:00.209Z,13.20
2023-10-31T17:50:27.730Z,12.40
2023-10-31T17:52:54.838Z,11.80
2023-10-31T17:55:22.957Z,11.20
2023-10-31T17:57:50.142Z,13.80
2023-10-31T18:00:20.312Z,9.50
2023-10-31T18:02:48.524Z,8.90
2023-10-31T18:05:15.937Z,8.70
2023-10-31T18:07:42.999Z,8.30
2023-10-31T18:10:10.815Z,7.90
2023-10-31T18:12:37.986Z,6.40
2023-10-31T18:15:05.531Z,6.00
2023-10-31T18:17:32.803Z,4.80
2023-10-31T18:19:59.821Z,4.50
2023-10-31T18:22:27.202Z,5.50
2023-10-31T18:24:54.457Z,5.40
2023-10-31T18:27:21.683Z,5.40
2023-10-31T18:29:52.307Z,6.50
2023-10-31T18:32:21.071Z,6.30
2023-10-31T18:34:48.295Z,6.70
2023-10-31T18:37:15.574Z,6.80
2023-10-31T18:39:42.625Z,7.20
2023-10-31T18:42:12.405Z,6.90
2023-10-31T18:44:46.475Z,5.90
2023-10-31T18:47:19.439Z,5.10
2023-10-31T18:49:46.618Z,5.40
2023-10-31T18:52:13.715Z,4.40
2023-10-31T18:54:40.685Z,4.70
2023-10-31T18:57:07.682Z,5.00
2023-10-31T18:59:35.910Z,5.10
2023-10-31T19:02:03.165Z,5.70
2023-10-31T19:04:30.208Z,5.50
2023-10-31T19:06:57.530Z,5.50
2023-10-31T19:09:24.506Z,5.10
2023-10-31T19:11:51.511Z,4.40
2023-10-31T19:14:18.741Z,4.70
2023-10-31T19:16:45.827Z,4.10
2023-10-31T19:19:12.738Z,4.10
2023-10-31T19:21:39.710Z,4.20
2023-10-31T19:24:07.153Z,4.60
2023-10-31T19:26:34.299Z,4.00
2023-10-31T19:29:01.542Z,4.40
2023-10-31T19:31:28.550Z,5.90
2023-10-31T19:33:58.268Z,4.90
2023-10-31T19:36:25.668Z,3.80
2023-10-31T19:38:55.177Z,3.70
2023-10-31T19:41:23.570Z,5.40
2023-10-31T19:43:51.417Z,3.90
2023-10-31T19:46:18.559Z,5.30
2023-10-31T19:48:45.609Z,6.30
2023-10-31T19:51:14.672Z,6.90
2023-10-31T19:53:41.837Z,9.00
2023-10-31T19:56:17.256Z,10.00
2023-10-31T19:58:44.316Z,12.80
2023-10-31T20:01:11.630Z,11.50
2023-10-31T20:03:38.732Z,10.10
2023-10-31T20:06:07.810Z,9.40
2023-10-31T20:08:36.823Z,9.90
2023-10-31T20:11:04.771Z,11.80
2023-10-31T20:13:31.932Z,11.30
2023-10-31T20:15:59.696Z,9.60
2023-10-31T20:18:27.759Z,9.50
2023-10-31T20:20:54.792Z,10.90
2023-10-31T20:23:21.805Z,9.50
2023-10-31T20:25:51.081Z,9.90
2023-10-31T20:28:18.422Z,10.10
2023-10-31T20:30:45.863Z,14.80
2023-10-31T20:33:13.727Z,15.80
2023-10-31T20:35:41.289Z,10.00
2023-10-31T20:38:11.105Z,7.10
2023-10-31T20:40:38.388Z,7.20
2023-10-31T20:43:05.608Z,7.70
2023-10-31T20:45:33.680Z,8.50
2023-10-31T20:48:00.979Z,8.60
2023-10-31T20:50:28.476Z,7.70
2023-10-31T20:52:56.418Z,6.80
2023-10-31T20:55:23.715Z,6.30
2023-10-31T20:57:50.975Z,6.50
2023-10-31T21:00:19.163Z,6.30
2023-10-31T21:02:49.867Z,6.10
2023-10-31T21:05:17.706Z,6.90
2023-10-31T21:07:45.057Z,6.80
2023-10-31T21:10:12.243Z,7.50
2023-10-31T21:12:39.379Z,7.00
2023-10-31T21:15:07.377Z,6.70
2023-10-31T21:17:34.852Z,6.10
2023-10-31T21:20:04.718Z,6.60
2023-10-31T21:22:33.845Z,5.90
2023-10-31T21:25:02.697Z,5.70
2023-10-31T21:27:30.171Z,6.60
2023-10-31T21:29:57.242Z,6.60
2023-10-31T21:32:24.570Z,6.30
2023-10-31T21:34:51.642Z,5.60
2023-10-31T21:37:18.816Z,6.70
2023-10-31T21:39:45.916Z,6.50
2023-10-31T21:42:13.459Z,6.70
2023-10-31T21:44:41.324Z,6.60
2023-10-31T21:47:08.308Z,6.30
2023-10-31T21:49:35.312Z,6.50
2023-10-31T21:52:02.271Z,5.90
2023-10-31T21:54:31.102Z,6.00
2023-10-31T21:56:58.450Z,5.60
2023-10-31T21:59:25.515Z,6.20
2023-10-31T22:01:52.486Z,6.00
2023-10-31T22:04:20.073Z,6.80
2023-10-31T22:06:47.239Z,6.90
2023-10-31T22:09:14.446Z,7.00
2023-10-31T22:11:41.970Z,6.80
2023-10-31T22:14:09.569Z,7.00
2023-10-31T22:16:36.801Z,6.30
2023-10-31T22:19:05.630Z,8.20
2023-10-31T22:21:32.708Z,7.60
2023-10-31T22:23:59.689Z,7.90
2023-10-31T22:26:27.223Z,7.00
2023-10-31T22:28:54.211Z,7.90
2023-10-31T22:31:21.133Z,7.40
2023-10-31T22:33:48.098Z,7.10
2023-10-31T22:36:15.189Z,7.30
2023-10-31T22:38:42.128Z,6.70
2023-10-31T22:41:09.246Z,7.10
2023-10-31T22:43:36.286Z,6.30
2023-10-31T22:46:07.970Z,6.60
2023-10-31T22:48:35.120Z,7.00
2023-10-31T22:51:02.580Z,6.70
2023-10-31T22:53:31.527Z,6.50
2023-10-31T22:55:59.385Z,6.50
2023-10-31T22:58:26.501Z,6.30
2023-10-31T23:00:53.554Z,6.80
2023-10-31T23:03:20.659Z,6.60
2023-10-31T23:05:47.853Z,6.30
2023-10-31T23:08:14.956Z,6.40
2023-10-31T23:10:42.356Z,5.90
2023-10-31T23:13:09.491Z,6.00
2023-10-31T23:15:36.480Z,6.50
2023-10-31T23:18:03.556Z,6.80
2023-10-31T23:20:30.622Z,5.40
2023-10-31T23:22:57.654Z,6.60
2023-10-31T23:25:24.930Z,5.60
2023-10-31T23:27:52.006Z,6.30
2023-10-31T23:30:19.126Z,6.50
2023-10-31T23:32:46.333Z,5.90
2023-10-31T23:35:13.673Z,6.60
2023-10-31T23:37:40.653Z,5.70
2023-10-31T23:40:08.222Z,5.80
2023-10-31T23:42:36.172Z,5.70
2023-10-31T23:45:04.004Z,5.80
2023-10-31T23:47:31.355Z,5.90
2023-10-31T23:49:59.028Z,7.00
2023-10-31T23:52:27.095Z,5.20
2023-10-31T23:54:54.031Z,6.20
2023-10-31T23:57:21.023Z,5.20
2023-10-31T23:59:47.998Z,5.60
